createdAt,value
2022-08-17T00:10:22.429Z,16.30
2022-08-17T00:30:22.152Z,17.60
2022-08-17T00:50:21.910Z,18.70
2022-08-17T01:10:59.359Z,19.70
2022-08-17T01:30:56.510Z,17.40
2022-08-17T01:50:21.105Z,17.80
2022-08-17T02:10:20.835Z,20.20
2022-08-17T02:30:59.264Z,20.40
2022-08-17T02:50:20.970Z,18.60
2022-08-17T03:10:20.687Z,23.40
2022-08-17T03:30:21.216Z,25.50
2022-08-17T03:50:19.358Z,26.60
2022-08-17T04:10:19.838Z,24.60
2022-08-17T04:30:18.942Z,28.20
2022-08-17T04:50:18.513Z,33.70
2022-08-17T05:10:18.248Z,29.80
2022-08-17T05:30:17.986Z,27.10
2022-08-17T05:50:18.352Z,25.80
2022-08-17T06:10:18.442Z,27.50
2022-08-17T06:30:17.161Z,21.40
2022-08-17T06:50:16.923Z,20.70
2022-08-17T07:10:16.731Z,24.70
2022-08-17T07:30:16.371Z,24.10
2022-08-17T07:50:16.090Z,26.80
2022-08-17T08:10:15.840Z,26.40
2022-08-17T08:30:23.124Z,18.30
2022-08-17T08:50:37.808Z,16.20
2022-08-17T09:10:15.002Z,17.90
2022-08-17T09:30:14.736Z,15.30
2022-08-17T09:50:14.491Z,13.40
2022-08-17T10:10:14.559Z,11.40
2022-08-17T10:30:14.055Z,9.40
2022-08-17T10:50:13.669Z,9.00
2022-08-17T11:10:13.424Z,7.90
2022-08-17T11:30:13.209Z,6.90
2022-08-17T11:50:12.920Z,6.40
2022-08-17T12:10:12.630Z,3.80
2022-08-17T12:30:13.356Z,5.30
2022-08-17T12:50:29.087Z,5.10
2022-08-17T13:10:11.879Z,7.80
2022-08-17T13:30:11.556Z,5.40
2022-08-17T13:50:11.309Z,6.70
2022-08-17T14:10:11.123Z,6.30
2022-08-17T14:30:10.795Z,8.20
2022-08-17T14:50:10.546Z,5.80
2022-08-17T15:10:10.301Z,6.70
2022-08-17T15:30:10.047Z,8.50
2022-08-17T15:50:09.791Z,6.20
2022-08-17T16:10:09.540Z,5.10
2022-08-17T16:49:06.261Z,5.50
2022-08-17T17:09:06.038Z,6.80
2022-08-17T17:29:05.721Z,5.00
2022-08-17T17:49:05.504Z,6.70
2022-08-17T18:09:06.443Z,7.40
2022-08-17T18:39:46.843Z,7.60
2022-08-17T18:59:46.418Z,6.20
2022-08-17T19:19:46.259Z,6.90
2022-08-17T19:39:45.975Z,5.10
2022-08-17T19:59:45.638Z,7.40
2022-08-17T20:19:45.508Z,6.10
2022-08-17T20:39:45.142Z,9.00
2022-08-17T20:59:45.153Z,8.10
2022-08-17T21:20:07.612Z,6.20
2022-08-17T21:39:44.235Z,7.00
2022-08-17T21:59:43.976Z,4.70
2022-08-17T22:19:43.717Z,7.00
2022-08-17T22:39:43.493Z,8.10
2022-08-17T22:59:44.228Z,7.60
2022-08-17T23:19:42.858Z,7.30
2022-08-17T23:39:42.611Z,9.10
2022-08-17T23:59:42.425Z,7.30
